Time;durP1;ratioP1;P1;durP2;ratioP2;P2;SDS_P1;SDS_P2;PMS_P1;PMS_P2;Temp;Humidity;BMP_temperature;BMP_pressure;BME280_temperature;BME280_humidity;BME280_pressure;Samples;Min_cycle;Max_cycle;Signal;HPM_P1;HPM_P2
2021/09/18 00:01:58;;;;;;;6.60;2.53;;;23.90;86.10;;;;;;6244041;22;20074;-82
2021/09/18 00:04:26;;;;;;;2.67;2.25;;;23.90;86.30;;;;;;6241603;23;20308;-87
2021/09/18 00:06:55;;;;;;;9.40;2.55;;;23.80;86.60;;;;;;6232875;22;20442;-83
2021/09/18 00:09:22;;;;;;;0.80;0.80;;;23.60;87.80;;;;;;6211875;23;20486;-84
2021/09/18 00:11:58;;;;;;;2.15;1.95;;;23.70;88.00;;;;;;6213100;23;20104;-84
2021/09/18 00:14:29;;;;;;;3.10;1.98;;;23.60;87.60;;;;;;6212728;23;20024;-85
2021/09/18 00:17:08;;;;;;;0.90;0.90;;;23.50;88.50;;;;;;6212713;23;20012;-89
2021/09/18 00:19:36;;;;;;;2.83;2.35;;;23.60;89.20;;;;;;6210800;23;20082;-87
2021/09/18 00:35:35;;;;;;;2.55;2.35;;;23.30;90.70;;;;;;6212655;23;20481;-83
2021/09/18 00:38:12;;;;;;;4.10;2.65;;;23.30;90.70;;;;;;6213848;23;20040;-83
2021/09/18 00:40:41;;;;;;;3.80;3.35;;;23.40;90.80;;;;;;6213501;23;20012;-84
2021/09/18 00:43:08;;;;;;;3.85;2.53;;;23.40;90.60;;;;;;6213363;23;20389;-80
2021/09/18 00:45:35;;;;;;;3.00;2.40;;;23.40;89.80;;;;;;6212067;23;20454;-80
2021/09/18 00:48:04;;;;;;;1.52;1.42;;;23.50;89.20;;;;;;6212703;23;20311;-85
2021/09/18 00:50:31;;;;;;;0.80;0.80;;;23.40;89.80;;;;;;6212814;23;20107;-80
2021/09/18 00:53:01;;;;;;;1.00;1.00;;;23.50;88.80;;;;;;6186790;23;20021;-80
2021/09/18 00:55:38;;;;;;;1.02;1.00;;;23.50;87.60;;;;;;6211170;23;20028;-80
2021/09/18 00:58:06;;;;;;;2.15;1.55;;;23.50;87.00;;;;;;6211237;23;20103;-82
2021/09/18 01:01:02;;;;;;;0.85;0.85;;;23.60;86.20;;;;;;6210950;23;20104;-81
2021/09/18 01:03:30;;;;;;;1.20;1.10;;;23.60;86.10;;;;;;6213291;23;20100;-83
2021/09/18 01:05:58;;;;;;;1.73;1.63;;;23.50;86.10;;;;;;6213259;23;20040;-81
2021/09/18 01:08:27;;;;;;;2.30;1.83;;;23.50;86.70;;;;;;6186187;23;20021;-80
2021/09/18 01:10:55;;;;;;;3.22;2.58;;;23.40;87.00;;;;;;6210735;23;20055;-80
2021/09/18 01:13:22;;;;;;;1.52;1.42;;;23.30;87.30;;;;;;6210845;23;20075;-83
2021/09/18 01:15:53;;;;;;;1.52;1.42;;;23.20;87.60;;;;;;6185860;23;20051;-80
2021/09/18 01:18:23;;;;;;;1.52;1.42;;;23.20;87.70;;;;;;6210466;23;20350;-81
2021/09/18 01:20:51;;;;;;;12.18;2.05;;;23.20;87.90;;;;;;6210933;23;20021;-82
2021/09/18 01:23:22;;;;;;;3.22;2.45;;;23.10;88.30;;;;;;6212578;23;20021;-84
2021/09/18 01:25:50;;;;;;;2.88;2.17;;;22.90;88.90;;;;;;6203021;23;20021;-79
2021/09/18 01:28:18;;;;;;;1.15;1.10;;;23.00;88.90;;;;;;6186031;23;20358;-88
2021/09/18 01:30:55;;;;;;;4.35;3.47;;;23.10;88.20;;;;;;6187576;23;20020;-82
2021/09/18 01:33:23;;;;;;;2.55;2.03;;;23.30;87.70;;;;;;6187418;23;20060;-86
2021/09/18 01:35:50;;;;;;;2.53;1.70;;;23.20;87.30;;;;;;6212045;23;20078;-82
2021/09/18 01:38:18;;;;;;;1.48;1.38;;;23.20;87.20;;;;;;6213069;23;20024;-84
2021/09/18 01:40:47;;;;;;;1.50;1.40;;;23.30;87.20;;;;;;6212360;23;20394;-84
2021/09/18 01:43:15;;;;;;;1.08;1.08;;;23.30;87.40;;;;;;6213179;23;20021;-89
2021/09/18 01:45:43;;;;;;;1.35;1.25;;;23.20;87.30;;;;;;6211949;23;20024;-80
2021/09/18 01:48:13;;;;;;;0.80;0.80;;;23.20;87.40;;;;;;6186487;23;20020;-81
2021/09/18 01:50:51;;;;;;;1.30;1.20;;;23.30;87.20;;;;;;6212929;23;20020;-79
2021/09/18 01:53:21;;;;;;;2.75;2.05;;;23.40;87.00;;;;;;6212595;23;20682;-79
2021/09/18 01:55:50;;;;;;;1.85;1.45;;;23.30;87.10;;;;;;6210533;23;20048;-78
2021/09/18 01:58:19;;;;;;;4.30;3.08;;;23.30;87.40;;;;;;6212676;23;20435;-80
2021/09/18 02:00:55;;;;;;;6.43;1.05;;;23.40;86.80;;;;;;6213006;23;20553;-82
2021/09/18 02:03:23;;;;;;;1.13;1.10;;;23.50;86.50;;;;;;6211949;23;20320;-85
2021/09/18 02:05:50;;;;;;;1.85;1.75;;;23.40;86.70;;;;;;6214224;23;20439;-83
2021/09/18 02:08:18;;;;;;;1.80;1.70;;;23.40;87.00;;;;;;6214005;23;20048;-83
2021/09/18 02:10:45;;;;;;;1.90;1.80;;;23.40;86.80;;;;;;6189650;23;20025;-83
2021/09/18 02:13:13;;;;;;;1.75;1.63;;;23.40;86.90;;;;;;6212696;23;20043;-85
2021/09/18 02:15:43;;;;;;;2.78;2.55;;;23.40;86.70;;;;;;6186754;23;20048;-82
2021/09/18 02:18:10;;;;;;;2.42;2.08;;;23.40;86.70;;;;;;6213313;23;20163;-79
2021/09/18 02:20:39;;;;;;;1.52;1.42;;;23.30;86.90;;;;;;6213503;23;20083;-89
2021/09/18 02:23:08;;;;;;;3.92;3.22;;;23.20;87.30;;;;;;6212489;23;20020;-89
2021/09/18 02:25:36;;;;;;;4.50;1.45;;;23.20;88.30;;;;;;6187160;23;20016;-84
2021/09/18 02:28:03;;;;;;;3.13;2.70;;;23.20;87.90;;;;;;6212141;23;20017;-88
2021/09/18 02:30:33;;;;;;;1.98;1.88;;;23.10;88.40;;;;;;6185565;23;20029;-84
2021/09/18 02:33:03;;;;;;;2.20;2.05;;;23.20;88.90;;;;;;6212102;23;20044;-81
2021/09/18 02:35:31;;;;;;;2.15;1.83;;;23.10;89.40;;;;;;6212550;23;20021;-82
2021/09/18 02:38:00;;;;;;;2.38;2.05;;;23.20;89.70;;;;;;6212083;23;20021;-84
2021/09/18 02:40:29;;;;;;;1.90;1.80;;;23.10;89.70;;;;;;6210383;23;20032;-85
2021/09/18 02:42:59;;;;;;;0.90;0.90;;;23.10;90.10;;;;;;6210398;23;20020;-82
2021/09/18 02:45:27;;;;;;;;;;;23.00;90.30;;;;;;6213043;23;20017;-81
2021/09/18 02:47:55;;;;;;;2.35;2.15;;;23.00;90.50;;;;;;6210807;23;20336;-81
2021/09/18 02:50:24;;;;;;;1.83;1.70;;;23.00;90.70;;;;;;6184714;23;20024;-83
2021/09/18 02:52:52;;;;;;;1.30;1.20;;;23.00;90.70;;;;;;6172557;23;20354;-82
2021/09/18 02:55:19;;;;;;;3.53;3.22;;;23.00;90.70;;;;;;6185309;23;20067;-81
2021/09/18 02:57:47;;;;;;;0.90;0.90;;;23.00;90.80;;;;;;6210353;23;20025;-81
2021/09/18 03:00:15;;;;;;;5.40;3.05;;;23.00;90.90;;;;;;6210113;23;20024;-81
2021/09/18 03:02:43;;;;;;;1.00;1.00;;;23.00;91.20;;;;;;6212095;23;20012;-79
2021/09/18 03:05:13;;;;;;;9.13;4.25;;;22.80;91.40;;;;;;6212111;23;20031;-80
2021/09/18 03:07:42;;;;;;;1.10;1.10;;;22.90;91.80;;;;;;6210814;23;20419;-79
2021/09/18 03:10:11;;;;;;;0.80;0.80;;;22.80;91.70;;;;;;6211357;23;20083;-79
2021/09/18 03:12:39;;;;;;;1.85;1.75;;;22.90;92.10;;;;;;6210647;23;20027;-79
2021/09/18 03:15:08;;;;;;;3.15;1.70;;;22.90;92.20;;;;;;6210286;23;20048;-83
2021/09/18 03:17:36;;;;;;;1.50;1.40;;;22.80;92.40;;;;;;6210751;23;20040;-81
2021/09/18 03:20:05;;;;;;;1.10;1.10;;;22.80;92.50;;;;;;6212070;23;20017;-79
2021/09/18 03:22:32;;;;;;;1.00;1.00;;;22.80;93.20;;;;;;6212140;23;20036;-84
2021/09/18 03:25:48;;;;;;;1.10;1.05;;;22.80;93.00;;;;;;6118534;23;20041;-79
2021/09/18 03:28:15;;;;;;;2.15;1.67;;;22.80;93.00;;;;;;6210608;23;20320;-77
2021/09/18 03:30:42;;;;;;;2.03;1.85;;;22.80;93.00;;;;;;6210092;23;20020;-80
2021/09/18 03:33:10;;;;;;;1.38;1.33;;;22.70;93.50;;;;;;6212227;23;20021;-80
2021/09/18 03:35:37;;;;;;;2.35;1.95;;;22.50;94.00;;;;;;6212312;23;20063;-79
2021/09/18 03:38:05;;;;;;;1.75;1.65;;;22.60;95.00;;;;;;6211893;23;20095;-81
2021/09/18 03:40:33;;;;;;;1.08;1.05;;;22.40;96.70;;;;;;6213461;23;20024;-79
2021/09/18 03:43:00;;;;;;;4.00;1.52;;;22.20;98.50;;;;;;6187142;23;20398;-77
2021/09/18 03:45:27;;;;;;;1.00;1.00;;;21.90;97.50;;;;;;6211723;23;20032;-78
2021/09/18 03:47:55;;;;;;;15.40;3.40;;;21.70;98.40;;;;;;6187091;23;20027;-79
2021/09/18 03:50:22;;;;;;;2.35;2.03;;;21.90;98.50;;;;;;6213514;23;20020;-77
2021/09/18 03:52:49;;;;;;;2.35;2.17;;;21.90;99.60;;;;;;6214394;23;20071;-84
2021/09/18 03:55:17;;;;;;;1.23;1.13;;;21.50;99.90;;;;;;6212080;23;20415;-80
2021/09/18 03:57:44;;;;;;;4.13;2.30;;;21.10;99.90;;;;;;6211808;23;20465;-80
2021/09/18 04:00:12;;;;;;;0.90;0.90;;;21.20;99.90;;;;;;6212030;23;20382;-82
2021/09/18 04:02:39;;;;;;;2.05;1.75;;;21.60;99.90;;;;;;6214153;23;20021;-89
2021/09/18 04:05:09;;;;;;;3.47;1.83;;;21.80;99.90;;;;;;6211971;23;20024;-90
2021/09/18 04:07:36;;;;;;;4.47;1.92;;;21.80;99.90;;;;;;6187044;23;20027;-81
2021/09/18 04:10:04;;;;;;;1.40;1.30;;;21.80;99.90;;;;;;6211450;23;20071;-81
2021/09/18 04:12:32;;;;;;;1.08;1.05;;;21.90;99.90;;;;;;6211714;23;20350;-81
2021/09/18 04:15:00;;;;;;;2.50;2.30;;;21.90;99.90;;;;;;6212809;23;20075;-81
2021/09/18 04:17:27;;;;;;;3.05;2.85;;;21.90;99.90;;;;;;6212039;23;20025;-81
2021/09/18 04:19:57;;;;;;;1.08;1.05;;;21.80;99.90;;;;;;6212681;23;20395;-81
2021/09/18 04:22:25;;;;;;;2.75;2.22;;;21.80;99.90;;;;;;6210860;23;20021;-80
2021/09/18 04:24:52;;;;;;;1.38;1.27;;;21.80;99.90;;;;;;6211416;23;20024;-81
2021/09/18 04:27:24;;;;;;;2.38;2.17;;;21.80;99.90;;;;;;6188033;23;20027;-78
2021/09/18 04:29:52;;;;;;;1.13;1.10;;;21.30;99.90;;;;;;6187113;23;20025;-83
2021/09/18 04:32:19;;;;;;;1.73;1.60;;;21.40;99.90;;;;;;6211859;23;20020;-76
2021/09/18 04:34:47;;;;;;;1.20;1.17;;;21.50;99.90;;;;;;6212945;23;20025;-79
2021/09/18 04:37:14;;;;;;;3.55;2.55;;;21.30;99.90;;;;;;6213417;23;20024;-77
2021/09/18 04:39:41;;;;;;;1.30;1.20;;;21.30;99.90;;;;;;6212953;23;20017;-77
2021/09/18 04:42:09;;;;;;;1.42;1.33;;;21.40;99.90;;;;;;6213254;23;20625;-78
2021/09/18 04:44:36;;;;;;;2.25;1.98;;;21.40;99.90;;;;;;6211723;23;20021;-77
2021/09/18 04:47:03;;;;;;;1.75;1.65;;;21.50;99.90;;;;;;6211761;23;20039;-79
2021/09/18 04:49:31;;;;;;;1.00;1.00;;;21.60;99.90;;;;;;6211371;23;20346;-80
2021/09/18 04:51:58;;;;;;;1.00;1.00;;;21.70;99.90;;;;;;6211355;23;20052;-79
2021/09/18 04:54:26;;;;;;;2.00;1.90;;;21.70;99.90;;;;;;6213649;23;20375;-79
2021/09/18 04:56:53;;;;;;;1.70;1.60;;;21.60;99.90;;;;;;6213120;23;20462;-82
2021/09/18 04:59:21;;;;;;;6.15;2.90;;;21.60;99.90;;;;;;6213974;23;20017;-82
2021/09/18 05:01:48;;;;;;;1.05;1.02;;;21.60;99.90;;;;;;6213775;23;20323;-79
2021/09/18 05:04:15;;;;;;;2.72;2.42;;;21.70;99.90;;;;;;6186473;23;20017;-79
2021/09/18 05:06:43;;;;;;;2.45;2.25;;;21.70;99.90;;;;;;6212559;23;20031;-81
2021/09/18 05:09:10;;;;;;;1.17;1.10;;;21.70;99.90;;;;;;6211537;23;20047;-79
2021/09/18 05:11:38;;;;;;;2.47;2.20;;;21.70;99.90;;;;;;6186039;23;20447;-80
2021/09/18 05:14:06;;;;;;;1.73;1.63;;;21.70;99.90;;;;;;6211107;23;20028;-79
2021/09/18 05:16:36;;;;;;;1.13;1.10;;;21.70;99.90;;;;;;6212832;23;20020;-79
2021/09/18 05:19:03;;;;;;;2.22;2.03;;;21.70;99.90;;;;;;6212663;23;20016;-79
2021/09/18 05:21:44;;;;;;;1.35;1.30;;;21.70;99.90;;;;;;6205331;23;20025;-81
2021/09/18 05:24:14;;;;;;;1.63;1.52;;;21.70;99.90;;;;;;6212258;23;20009;-82
2021/09/18 05:26:44;;;;;;;3.60;2.53;;;21.60;99.90;;;;;;6211331;23;20020;-86
2021/09/18 05:29:11;;;;;;;2.10;1.90;;;21.60;99.90;;;;;;6212900;23;20016;-87
2021/09/18 05:31:39;;;;;;;1.38;1.27;;;21.40;99.90;;;;;;6210713;23;20030;-80
2021/09/18 05:34:06;;;;;;;2.35;2.15;;;21.30;99.90;;;;;;6212905;23;20017;-81
2021/09/18 05:36:34;;;;;;;2.22;2.03;;;21.30;99.90;;;;;;6211524;23;20036;-87
2021/09/18 05:39:03;;;;;;;2.00;1.90;;;21.20;99.90;;;;;;6211146;23;20013;-81
2021/09/18 05:41:30;;;;;;;6.97;4.10;;;21.30;99.90;;;;;;6186471;23;20029;-80
2021/09/18 05:43:58;;;;;;;2.10;1.95;;;21.50;99.90;;;;;;6211223;23;20017;-83
2021/09/18 05:46:25;;;;;;;1.67;1.58;;;21.30;99.90;;;;;;6212419;23;20024;-80
2021/09/18 05:48:52;;;;;;;4.50;4.05;;;21.30;99.90;;;;;;6186133;23;20017;-82
2021/09/18 05:51:20;;;;;;;7.00;4.15;;;21.30;99.90;;;;;;6186170;23;20056;-80
2021/09/18 05:53:47;;;;;;;9.52;4.75;;;21.40;99.90;;;;;;6186504;23;20090;-84
2021/09/18 05:56:14;;;;;;;1.23;1.17;;;21.40;99.90;;;;;;6212989;23;20020;-79
2021/09/18 05:58:59;;;;;;;1.75;1.65;;;21.50;99.90;;;;;;6210887;23;20021;-82
2021/09/18 06:01:26;;;;;;;1.83;1.73;;;21.50;99.90;;;;;;6213411;23;20032;-81
2021/09/18 06:03:54;;;;;;;1.45;1.40;;;21.60;99.90;;;;;;6186418;23;20020;-80
2021/09/18 06:06:27;;;;;;;1.05;1.05;;;21.70;99.90;;;;;;6185913;23;20443;-86
2021/09/18 06:08:55;;;;;;;1.00;1.00;;;21.60;99.90;;;;;;6210764;23;20020;-80
2021/09/18 06:11:23;;;;;;;3.47;3.17;;;21.70;99.90;;;;;;6211216;23;20024;-80
2021/09/18 06:13:50;;;;;;;1.52;1.42;;;21.80;99.90;;;;;;6211061;23;20114;-85
2021/09/18 06:16:17;;;;;;;1.45;1.35;;;21.90;99.90;;;;;;6210693;23;20035;-82
2021/09/18 06:18:45;;;;;;;0.90;0.90;;;21.90;99.90;;;;;;6210772;23;20023;-81
2021/09/18 06:21:16;;;;;;;1.45;1.35;;;22.00;99.90;;;;;;6212100;23;20020;-81
2021/09/18 06:23:43;;;;;;;1.00;1.00;;;22.10;99.90;;;;;;6210467;23;20031;-81
2021/09/18 06:26:11;;;;;;;1.42;1.33;;;22.10;99.90;;;;;;6185800;23;20025;-91
2021/09/18 06:28:41;;;;;;;7.55;2.28;;;22.00;99.90;;;;;;6210765;23;20043;-82
2021/09/18 06:31:09;;;;;;;1.88;1.77;;;22.10;99.90;;;;;;6209955;23;20048;-82
2021/09/18 06:33:42;;;;;;;1.73;1.63;;;22.10;99.90;;;;;;6210608;23;20020;-80
2021/09/18 06:36:12;;;;;;;1.40;1.30;;;22.10;99.90;;;;;;6212562;23;20027;-86
2021/09/18 06:38:40;;;;;;;2.17;2.08;;;22.10;99.90;;;;;;6210587;23;20607;-85
2021/09/18 06:41:07;;;;;;;2.03;1.63;;;22.10;99.90;;;;;;6185563;23;20027;-81
2021/09/18 06:43:42;;;;;;;1.77;1.67;;;22.10;99.90;;;;;;6210284;23;20592;-84
2021/09/18 06:46:09;;;;;;;1.52;1.42;;;22.10;99.90;;;;;;6211924;23;20017;-82
2021/09/18 06:48:37;;;;;;;1.65;1.55;;;22.20;99.90;;;;;;6210810;23;20028;-88
2021/09/18 06:51:07;;;;;;;1.50;1.40;;;22.20;99.90;;;;;;6212143;23;20021;-83
2021/09/18 06:53:35;;;;;;;1.00;1.00;;;22.00;99.90;;;;;;6211111;23;20465;-80
2021/09/18 06:56:03;;;;;;;1.23;1.13;;;22.00;99.90;;;;;;6211437;23;20025;-90
2021/09/18 06:58:30;;;;;;;1.92;1.83;;;22.20;99.90;;;;;;6214445;23;20025;-91
2021/09/18 07:00:59;;;;;;;0.90;0.90;;;22.20;99.90;;;;;;6214512;23;20017;-82
2021/09/18 07:03:27;;;;;;;0.90;0.90;;;22.10;99.90;;;;;;6187208;23;20033;-81
2021/09/18 07:05:55;;;;;;;0.93;0.93;;;22.10;99.90;;;;;;6210688;23;20398;-81
2021/09/18 07:08:22;;;;;;;18.40;2.30;;;22.10;99.90;;;;;;6209824;23;20044;-78
2021/09/18 07:10:50;;;;;;;1.95;1.60;;;22.00;99.90;;;;;;6210585;23;20032;-78
2021/09/18 07:13:18;;;;;;;5.35;4.85;;;20.90;99.90;;;;;;6187746;23;20031;-78
2021/09/18 07:15:45;;;;;;;1.13;1.10;;;20.70;99.90;;;;;;6214000;23;20082;-80
2021/09/18 07:18:13;;;;;;;2.78;2.30;;;21.00;99.90;;;;;;6188699;23;20434;-83
2021/09/18 07:20:41;;;;;;;1.45;1.35;;;21.10;99.90;;;;;;6189876;23;20397;-90
2021/09/18 07:23:09;;;;;;;1.77;1.67;;;21.10;99.90;;;;;;6216335;23;20024;-83
2021/09/18 07:25:36;;;;;;;1.63;1.52;;;20.90;99.90;;;;;;6216123;23;20451;-89
2021/09/18 07:28:04;;;;;;;2.45;1.98;;;20.90;99.90;;;;;;6189561;23;20435;-85
2021/09/18 07:30:31;;;;;;;2.75;2.55;;;20.70;99.90;;;;;;6213229;23;20025;-77
2021/09/18 07:32:59;;;;;;;7.03;6.30;;;20.60;99.90;;;;;;6187838;23;20024;-78
2021/09/18 07:35:26;;;;;;;2.80;2.50;;;20.70;99.90;;;;;;6187700;23;20375;-88
2021/09/18 07:37:54;;;;;;;1.10;1.10;;;20.50;99.90;;;;;;6211947;23;20343;-81
2021/09/18 07:40:21;;;;;;;3.53;1.80;;;20.50;99.90;;;;;;6213391;23;20017;-83
2021/09/18 07:42:49;;;;;;;1.40;1.30;;;20.40;99.90;;;;;;6187038;23;20021;-83
2021/09/18 07:45:16;;;;;;;2.58;2.38;;;20.50;99.90;;;;;;6213210;23;20099;-80
2021/09/18 07:47:43;;;;;;;1.17;1.10;;;20.50;99.90;;;;;;6213035;23;20020;-80
2021/09/18 07:50:15;;;;;;;1.15;1.10;;;20.50;99.90;;;;;;6215506;23;20039;-89
2021/09/18 07:52:43;;;;;;;1.55;1.45;;;20.60;99.90;;;;;;6215320;23;20017;-84
2021/09/18 07:55:11;;;;;;;1.40;1.30;;;20.80;99.90;;;;;;6218733;23;20397;-87
2021/09/18 07:57:58;;;;;;;1.00;1.00;;;20.80;99.90;;;;;;6218707;23;20021;-91
2021/09/18 08:00:25;;;;;;;1.38;1.27;;;21.00;99.90;;;;;;6215896;23;20020;-91
2021/09/18 08:02:55;;;;;;;2.72;2.47;;;21.00;99.90;;;;;;6214918;23;20026;-91
2021/09/18 08:05:23;;;;;;;;;;;21.40;99.90;;;;;;6214796;23;20025;-84
2021/09/18 08:07:51;;;;;;;2.63;2.42;;;21.70;99.90;;;;;;6213208;23;19927;-90
2021/09/18 08:10:18;;;;;;;2.03;1.83;;;21.80;99.90;;;;;;6214618;23;20312;-88
2021/09/18 08:12:48;;;;;;;3.38;2.42;;;22.10;99.90;;;;;;6212171;23;20457;-80
2021/09/18 08:15:16;;;;;;;1.58;1.48;;;22.20;99.90;;;;;;6212401;23;20093;-80
2021/09/18 08:17:46;;;;;;;1.30;1.20;;;22.30;99.90;;;;;;6213217;23;20021;-81
2021/09/18 08:20:16;;;;;;;1.13;1.10;;;22.80;99.90;;;;;;6214996;23;20020;-81
2021/09/18 08:22:48;;;;;;;2.50;2.25;;;22.70;99.90;;;;;;6214785;23;20020;-85
2021/09/18 08:25:15;;;;;;;1.02;1.02;;;22.80;99.90;;;;;;6213844;23;20017;-81
2021/09/18 08:27:43;;;;;;;1.25;1.15;;;22.80;99.90;;;;;;6213402;23;20020;-81
2021/09/18 08:30:13;;;;;;;2.58;2.38;;;22.80;99.90;;;;;;6215548;23;20342;-81
2021/09/18 08:32:40;;;;;;;1.08;1.08;;;22.70;99.90;;;;;;6213610;23;20024;-83
2021/09/18 08:35:08;;;;;;;2.05;1.80;;;22.70;99.90;;;;;;6215915;23;20013;-87
2021/09/18 08:37:36;;;;;;;2.65;2.45;;;22.60;99.90;;;;;;6214063;23;20052;-83
2021/09/18 08:40:06;;;;;;;1.60;1.27;;;22.30;99.90;;;;;;6215070;23;20052;-81
2021/09/18 08:42:37;;;;;;;1.23;1.13;;;21.40;99.90;;;;;;6212882;23;20082;-82
2021/09/18 08:45:06;;;;;;;2.35;2.10;;;21.40;99.90;;;;;;6214436;23;20024;-83
2021/09/18 08:47:35;;;;;;;1.48;1.38;;;21.00;99.90;;;;;;6212295;23;20028;-80
2021/09/18 08:50:06;;;;;;;3.47;2.97;;;21.30;99.90;;;;;;6187383;23;20025;-83
2021/09/18 08:52:59;;;;;;;1.73;1.42;;;21.60;99.90;;;;;;6211661;23;20466;-82
2021/09/18 08:55:26;;;;;;;1.42;1.33;;;21.30;99.90;;;;;;6186805;23;20025;-81
2021/09/18 08:57:54;;;;;;;1.45;1.35;;;20.50;99.90;;;;;;6212782;23;20095;-87
2021/09/18 09:00:33;;;;;;;2.05;1.95;;;20.20;99.90;;;;;;6211788;23;20016;-83
2021/09/18 09:03:09;;;;;;;1.65;1.55;;;20.10;99.90;;;;;;6213813;23;20024;-83
2021/09/18 09:05:42;;;;;;;8.52;3.50;;;19.90;99.90;;;;;;6213662;23;20446;-84
2021/09/18 09:08:39;;;;;;;2.17;1.95;;;19.70;99.90;;;;;;6205003;23;20031;-81
2021/09/18 09:11:27;;;;;;;1.60;1.50;;;19.80;99.90;;;;;;6186369;23;20020;-77
2021/09/18 09:14:03;;;;;;;2.30;1.55;;;20.20;99.90;;;;;;6213453;23;20394;-81
2021/09/18 09:16:33;;;;;;;1.20;1.10;;;20.70;99.90;;;;;;6212971;23;20012;-79
2021/09/18 09:19:17;;;;;;;4.85;1.58;;;20.90;99.90;;;;;;6185861;23;20122;-81
2021/09/18 09:21:53;;;;;;;1.10;1.10;;;21.00;99.90;;;;;;6186741;23;20012;-83
2021/09/18 09:24:22;;;;;;;2.75;1.88;;;20.80;99.90;;;;;;6186256;23;20044;-83
2021/09/18 09:27:14;;;;;;;1.75;1.50;;;20.90;99.90;;;;;;6190085;23;20403;-87
2021/09/18 09:29:47;;;;;;;2.72;2.53;;;20.70;99.90;;;;;;6214073;23;20016;-80
2021/09/18 09:32:29;;;;;;;1.15;1.10;;;20.60;99.90;;;;;;6213828;23;20047;-89
2021/09/18 09:34:58;;;;;;;1.63;1.52;;;20.60;99.90;;;;;;6161262;23;20108;-81
2021/09/18 09:37:26;;;;;;;1.20;1.10;;;20.70;99.90;;;;;;6214498;23;20021;-83
2021/09/18 09:39:59;;;;;;;4.10;2.08;;;20.60;99.90;;;;;;6175912;23;20024;-82
2021/09/18 09:42:33;;;;;;;1.20;1.10;;;20.60;99.90;;;;;;6212191;23;20070;-81
2021/09/18 09:45:11;;;;;;;1.17;1.13;;;20.60;99.90;;;;;;6210139;23;20024;-79
2021/09/18 09:47:38;;;;;;;1.60;1.50;;;20.70;99.90;;;;;;6184563;23;20550;-84
2021/09/18 09:50:06;;;;;;;2.08;1.95;;;20.80;99.90;;;;;;6184983;23;20016;-80
2021/09/18 09:52:36;;;;;;;5.72;2.47;;;20.80;99.90;;;;;;6182775;23;20046;-79
2021/09/18 09:55:15;;;;;;;3.50;3.00;;;20.90;99.90;;;;;;6184066;23;20036;-79
2021/09/18 09:57:56;;;;;;;4.30;2.65;;;20.90;99.90;;;;;;6160443;23;20457;-80
2021/09/18 10:00:23;;;;;;;3.13;2.80;;;21.00;99.90;;;;;;6159233;23;20021;-79
2021/09/18 10:02:51;;;;;;;4.10;3.65;;;21.00;99.90;;;;;;6185134;23;20051;-82
2021/09/18 10:05:18;;;;;;;8.25;6.18;;;21.00;99.90;;;;;;6182113;23;20032;-79
2021/09/18 10:07:46;;;;;;;3.38;3.08;;;21.00;99.90;;;;;;6181489;23;20045;-79
2021/09/18 10:10:14;;;;;;;2.15;1.98;;;21.20;99.90;;;;;;6179355;23;20021;-77
2021/09/18 10:12:42;;;;;;;2.30;2.17;;;21.20;99.90;;;;;;6154200;23;20031;-79
2021/09/18 10:16:03;;;;;;;1.45;1.35;;;21.20;99.90;;;;;;6188313;23;20012;-80
2021/09/18 10:18:43;;;;;;;10.40;3.67;;;21.10;99.90;;;;;;6185783;23;20439;-82
2021/09/18 10:25:39;;;;;;;3.72;3.25;;;21.10;99.90;;;;;;6094225;23;20022;-83
2021/09/18 10:28:47;;;;;;;4.57;4.15;;;21.00;99.90;;;;;;6091568;23;20021;-81
2021/09/18 10:31:16;;;;;;;1.40;1.30;;;21.10;99.90;;;;;;6210679;23;20070;-83
2021/09/18 10:33:52;;;;;;;3.45;2.88;;;21.20;99.90;;;;;;6212037;23;20059;-81
2021/09/18 10:36:42;;;;;;;1.35;1.25;;;21.30;99.90;;;;;;6186447;23;20021;-84
2021/09/18 10:39:12;;;;;;;1.40;1.30;;;21.40;99.90;;;;;;6209133;23;20346;-82
2021/09/18 10:41:56;;;;;;;2.25;1.55;;;21.00;99.90;;;;;;6211462;23;20033;-82
2021/09/18 10:44:51;;;;;;;1.17;1.13;;;20.50;99.90;;;;;;6185717;23;20024;-82
2021/09/18 10:47:47;;;;;;;1.50;1.40;;;20.70;99.90;;;;;;6160820;23;20033;-81
2021/09/18 10:50:21;;;;;;;1.38;1.27;;;20.80;99.90;;;;;;6185430;23;20017;-81
2021/09/18 10:53:06;;;;;;;1.63;1.52;;;20.90;99.90;;;;;;6183520;23;20025;-79
2021/09/18 10:56:05;;;;;;;1.65;1.55;;;21.10;99.90;;;;;;5107709;27;20381;-83
2021/09/18 10:59:06;;;;;;;2.10;2.00;;;21.10;99.90;;;;;;5053528;27;1437852;-83
2021/09/18 11:01:51;;;;;;;2.08;1.90;;;21.20;99.90;;;;;;5108341;27;20722;-83
2021/09/18 11:04:41;;;;;;;1.40;1.30;;;21.10;99.90;;;;;;5106334;27;20454;-83
2021/09/18 11:07:44;;;;;;;1.08;1.05;;;21.30;99.90;;;;;;5128459;27;20388;-85
2021/09/18 11:11:05;;;;;;;1.40;1.30;;;21.30;99.90;;;;;;5103634;27;20424;-86
2021/09/18 11:14:00;;;;;;;1.55;1.25;;;21.20;99.90;;;;;;5108303;27;20434;-83
2021/09/18 11:16:52;;;;;;;1.42;1.33;;;21.30;99.90;;;;;;5066119;28;20437;-80
2021/09/18 11:19:54;;;;;;;2.55;1.98;;;21.50;99.90;;;;;;5123015;27;20385;-81
2021/09/18 11:22:53;;;;;;;1.90;1.77;;;21.60;99.90;;;;;;5127900;27;20376;-78
2021/09/18 11:25:46;;;;;;;2.13;1.92;;;21.60;99.90;;;;;;5066949;28;20438;-76
2021/09/18 11:28:36;;;;;;;2.60;2.28;;;21.90;99.90;;;;;;5020836;28;20879;-79
2021/09/18 11:31:30;;;;;;;4.78;2.00;;;22.40;99.90;;;;;;5087045;28;20417;-79
2021/09/18 11:34:25;;;;;;;1.90;1.80;;;22.60;99.90;;;;;;5126881;27;20380;-79
2021/09/18 11:37:26;;;;;;;0.95;0.95;;;22.70;99.90;;;;;;5107224;27;20409;-78
2021/09/18 11:40:10;;;;;;;0.80;0.80;;;22.60;99.90;;;;;;5101005;27;20492;-78
2021/09/18 11:43:02;;;;;;;2.88;2.20;;;23.00;99.90;;;;;;5066074;28;20376;-77
2021/09/18 11:45:47;;;;;;;2.22;2.03;;;22.90;99.90;;;;;;5127447;27;20460;-79
2021/09/18 11:48:40;;;;;;;3.35;1.38;;;23.20;99.90;;;;;;5087715;27;20412;-78
2021/09/18 11:51:34;;;;;;;1.73;1.63;;;23.40;99.90;;;;;;5064350;28;20415;-80
2021/09/18 11:54:32;;;;;;;2.05;1.45;;;23.40;99.90;;;;;;5113974;27;20467;-78
2021/09/18 11:57:25;;;;;;;0.77;0.77;;;23.60;99.90;;;;;;5085255;27;20390;-79
2021/09/18 12:00:13;;;;;;;0.68;0.68;;;23.80;99.90;;;;;;5084004;28;20402;-79
2021/09/18 12:03:09;;;;;;;0.70;0.70;;;24.40;99.90;;;;;;5101217;27;20477;-82
2021/09/18 12:06:03;;;;;;;1.33;1.23;;;24.60;99.90;;;;;;5056544;28;20963;-81
2021/09/18 12:08:58;;;;;;;1.45;1.35;;;24.80;99.90;;;;;;5100805;27;20382;-79
2021/09/18 12:11:42;;;;;;;4.20;2.95;;;24.60;99.90;;;;;;5086278;27;20397;-83
2021/09/18 12:14:37;;;;;;;2.97;1.67;;;24.70;99.90;;;;;;5063888;28;20481;-79
2021/09/18 12:17:20;;;;;;;0.90;0.90;;;25.00;99.90;;;;;;5085746;28;20419;-81
2021/09/18 12:20:18;;;;;;;1.23;1.13;;;24.80;99.90;;;;;;5096717;27;20166;-81
2021/09/18 12:23:14;;;;;;;0.77;0.77;;;24.50;99.90;;;;;;5068835;27;20446;-81
2021/09/18 12:26:07;;;;;;;0.90;0.90;;;24.30;99.90;;;;;;5104440;27;20414;-81
2021/09/18 12:29:11;;;;;;;5.05;3.65;;;24.50;99.90;;;;;;5065529;28;20415;-84
2021/09/18 12:32:06;;;;;;;5.55;3.65;;;25.00;99.90;;;;;;5105741;27;20403;-79
2021/09/18 12:34:50;;;;;;;1.05;0.82;;;25.40;99.90;;;;;;5115895;27;20184;-79
2021/09/18 12:37:45;;;;;;;0.60;0.60;;;25.40;99.90;;;;;;5104948;27;20430;-79
2021/09/18 12:40:49;;;;;;;0.65;0.65;;;25.60;99.90;;;;;;5085959;27;20391;-80
2021/09/18 12:43:35;;;;;;;1.10;0.85;;;26.10;99.90;;;;;;5084321;28;20860;-79
2021/09/18 12:46:28;;;;;;;1.27;0.88;;;25.60;99.90;;;;;;5103577;27;20896;-76
2021/09/18 12:49:22;;;;;;;3.00;2.67;;;26.30;99.90;;;;;;5104116;27;20454;-81
2021/09/18 12:52:16;;;;;;;2.45;1.92;;;26.60;99.90;;;;;;5055470;28;20453;-80
2021/09/18 12:55:08;;;;;;;7.10;2.53;;;26.50;99.90;;;;;;5105045;27;20552;-81
2021/09/18 13:08:16;;;;;;;24.30;1.70;;;26.50;99.90;;;;;;6159468;22;1428127;-79
2021/09/18 13:11:49;;;;;;;0.75;0.75;;;26.70;99.90;;;;;;5062136;28;20416;-81
2021/09/18 13:14:47;;;;;;;1.75;1.65;;;26.70;99.90;;;;;;5104373;27;20385;-81
2021/09/18 13:17:36;;;;;;;0.90;0.57;;;26.90;99.90;;;;;;5106591;27;20409;-80
2021/09/18 13:20:28;;;;;;;0.50;0.50;;;27.10;99.90;;;;;;5140714;27;20789;-78
2021/09/18 13:33:34;;;;;;;5.38;1.77;;;26.90;99.90;;;;;;5146865;27;20328;-83
2021/09/18 13:59:30;;;;;;;4.97;4.13;;;27.90;98.30;;;;;;6220830;23;20456;-82
2021/09/18 14:02:21;;;;;;;4.55;2.85;;;27.80;99.50;;;;;;5073554;27;1423615;-81
2021/09/18 14:05:08;;;;;;;1.85;1.58;;;27.80;99.50;;;;;;5087603;27;20773;-80
2021/09/18 14:08:00;;;;;;;1.52;1.42;;;26.90;99.50;;;;;;5094651;27;1548852;-81
2021/09/18 14:10:46;;;;;;;4.35;2.55;;;26.60;99.90;;;;;;5047550;28;20393;-85
2021/09/18 14:13:39;;;;;;;1.95;1.40;;;26.30;99.90;;;;;;5080952;27;20394;-82
2021/09/18 14:16:33;;;;;;;1.00;0.98;;;26.20;99.90;;;;;;5128059;27;20432;-83
2021/09/18 14:27:08;;;;;;;0.40;0.40;;;27.30;99.90;;;;;;5068293;28;20036;-81
2021/09/18 14:30:04;;;;;;;0.60;0.60;;;27.70;98.40;;;;;;5149544;27;20538;-82
2021/09/18 14:43:12;;;;;;;20.67;2.67;;;28.50;97.40;;;;;;5148769;27;20111;-80
2021/09/18 14:46:04;;;;;;;5.13;1.52;;;26.50;98.00;;;;;;5108038;27;20381;-82
2021/09/18 14:49:12;;;;;;;0.50;0.50;;;26.00;99.20;;;;;;5023443;28;20409;-83